Latest Weather Observations for Cultana (Defence)

IDS60801

Issued at 4:31 pm CST Sunday 23 September 2018 (issued every 10 minutes, with the page automatically refreshed every 10 minutes)

About weather observations | Map of weather stations | Latest weather observations for SA | Other Formats
Station Details ID: 018229 Name: CULTANA (DEFENCE) Lat: -32.68 Lon: 137.37 Height: 171.0 m
Data from the previous 72 hours. | See also: Recent months at Cultana (Defence)
Date/Time
CST
Temp
°C
App
Temp
°C
Dew
Point
°C
Rel
Hum
%
Delta-T
°C
Wind Press
QNH
hPa
Press
MSL
hPa
Rain since
9am
mm
Dir  Spd
km/h
Gust
km/h
Spd
kts
Gust
kts
23/04:30pm 21.4 14.7 3.6 31 8.6 SSE 28 37 15 20 - - 0.0
23/04:00pm 21.9 15.7 4.5 32 8.6 S 26 35 14 19 - - 0.0
23/03:30pm 21.0 14.9 5.0 35 7.9 SSE 26 33 14 18 - - 0.0
23/03:00pm 21.1 16.0 6.2 38 7.6 S 22 32 12 17 - - 0.0
23/02:30pm 21.2 16.8 6.7 39 7.4 S 19 26 10 14 - - 0.0
23/02:00pm 21.7 17.2 6.0 36 8.0 SSE 19 24 10 13 - - 0.0
23/01:30pm 21.6 17.0 6.7 38 7.7 SSE 20 30 11 16 - - 0.0
23/01:00pm 21.9 17.6 7.7 40 7.4 SE 20 30 11 16 - - 0.0
23/12:30pm 21.6 16.9 7.8 41 7.2 SSE 22 28 12 15 - - 0.0
23/12:00pm 21.3 17.2 8.6 44 6.7 SSE 20 28 11 15 - - 0.0
23/11:30am 21.7 17.8 9.3 45 6.7 SSE 20 28 11 15 - - 0.0
23/11:00am 20.2 16.1 8.8 48 6.0 SSE 20 28 11 15 - - 0.0
23/10:30am 19.9 16.2 10.0 53 5.4 SSE 20 30 11 16 - - 0.0
23/10:00am 18.3 13.8 10.2 59 4.4 SSE 24 32 13 17 - - 0.0
23/09:30am 17.4 13.9 10.1 62 3.9 SSE 19 28 10 15 - - 0.0
23/09:00am 16.9 13.9 10.5 66 3.4 SSE 17 24 9 13 - - 0.0
23/08:30am 14.8 11.3 11.0 78 2.0 SSE 20 24 11 13 - - 0.0
23/08:00am 13.1 9.7 11.2 88 1.0 S 20 24 11 13 - - 0.0
23/07:30am 12.3 9.0 11.5 95 0.4 SSE 20 26 11 14 - - 0.0
23/07:00am 11.3 7.8 10.8 97 0.3 S 20 24 11 13 - - 0.0
23/06:30am 10.8 8.1 10.3 97 0.3 SSE 15 20 8 11 - - 0.0
23/06:00am 9.9 6.5 9.3 96 0.3 S 17 19 9 10 - - 0.0
23/05:30am 9.6 6.5 9.0 96 0.3 S 15 17 8 9 - - 0.0
23/05:00am 9.7 7.0 8.9 95 0.4 S 13 15 7 8 - - 0.0
23/04:30am 9.9 7.2 9.1 95 0.4 S 13 15 7 8 - - 0.0
23/04:00am 10.1 7.5 9.2 94 0.5 S 13 15 7 8 - - 0.0
23/03:30am 10.3 8.1 9.2 93 0.6 S 11 13 6 7 - - 0.0
23/03:00am 10.4 8.2 9.3 93 0.6 S 11 15 6 8 - - 0.0
23/02:30am 10.4 7.0 9.3 93 0.6 S 17 17 9 9 - - 0.0
23/02:00am 10.5 7.1 9.3 92 0.6 S 17 17 9 9 - - 0.0
23/01:30am 10.7 7.4 9.5 92 0.6 S 17 19 9 10 - - 0.0
23/01:00am 11.1 8.2 9.7 91 0.7 S 15 17 8 9 - - 0.0
23/12:30am 11.7 8.9 9.9 89 0.9 S 15 17 8 9 - - 0.0
23/12:00am 12.3 8.8 10.2 87 1.1 S 19 24 10 13 - - 0.0
 
Date/Time
CST
Temp
°C
App
Temp
°C
Dew
Point
°C
Rel
Hum
%
Delta-T
°C
Wind Press
QNH
hPa
Press
MSL
hPa
Rain since
9am
mm
Dir  Spd
km/h
Gust
km/h
Spd
kts
Gust
kts
22/11:30pm 12.8 9.2 10.0 83 1.5 SSE 19 22 10 12 - - 0.0
22/11:00pm 13.2 8.6 9.8 80 1.8 S 24 30 13 16 - - 0.0
22/10:30pm 13.7 9.0 9.4 75 2.2 S 24 30 13 16 - - 0.0
22/10:00pm 14.1 9.6 8.5 69 2.8 S 22 28 12 15 - - 0.0
22/09:30pm 14.7 9.4 7.0 60 3.8 S 24 35 13 19 - - 0.0
22/09:00pm 15.6 9.2 5.2 50 5.0 S 28 35 15 19 - - 0.0
22/08:30pm 16.2 10.4 4.3 45 5.6 S 24 30 13 16 - - 0.0
22/08:00pm 16.8 10.6 4.5 44 5.9 S 26 33 14 18 - - 0.0
22/07:30pm 17.2 10.7 4.5 43 6.1 S 28 35 15 19 - - 0.0
22/07:00pm 18.0 10.2 2.7 36 7.1 S 33 46 18 25 - - 0.0
22/06:30pm 18.9 11.1 3.1 35 7.4 SSE 33 41 18 22 - - 0.0
22/06:00pm 20.1 11.7 3.8 34 7.8 SSE 37 43 20 23 - - 0.0
22/05:30pm 21.9 14.0 4.5 32 8.6 SSE 35 44 19 24 - - 0.0
22/05:00pm 23.1 15.8 4.6 30 9.2 SSE 32 43 17 23 - - 0.0
22/04:30pm 23.9 16.4 4.3 28 9.8 SSE 33 43 18 23 - - 0.0
22/04:00pm 25.4 18.2 5.1 27 10.4 SSE 32 41 17 22 - - 0.0
22/03:30pm 28.5 23.3 0.3 16 13.5 SW 17 26 9 14 - - 0.0
22/03:00pm 28.3 23.6 0.9 17 13.2 W 15 30 8 16 - - 0.0
22/02:30pm 28.0 22.3 0.7 17 13.1 W 20 30 11 16 - - 0.0
22/02:00pm 27.0 21.9 0.7 18 12.5 W 17 24 9 13 - - 0.0
22/01:30pm 27.5 22.1 1.1 18 12.7 W 19 28 10 15 - - 0.0
22/01:00pm 26.7 22.4 1.2 19 12.2 NW 13 24 7 13 - - 0.0
22/12:30pm 26.3 21.0 1.6 20 11.9 NW 19 32 10 17 - - 0.0
22/12:00pm 26.2 22.4 1.5 20 11.9 NW 11 28 6 15 - - 0.0
22/11:30am 25.3 20.7 1.4 21 11.4 NW 15 24 8 13 - - 0.0
22/11:00am 24.8 19.4 1.0 21 11.2 WNW 19 30 10 16 - - 0.0
22/10:30am 24.9 20.3 1.7 22 11.1 NNW 15 26 8 14 - - 0.0
22/10:00am 23.6 19.9 2.4 25 10.2 NNW 11 19 6 10 - - 0.0
22/09:30am 22.3 18.8 3.4 29 9.2 NNW 11 17 6 9 - - 0.0
22/09:00am 21.4 17.9 3.6 31 8.6 N 11 15 6 8 - - 0.0
22/08:30am 19.3 15.6 4.3 37 7.2 N 13 17 7 9 - - 0.0
22/08:00am 17.5 14.0 5.4 45 5.9 NNE 13 15 7 8 - - 0.0
22/07:30am 16.2 13.8 6.9 54 4.6 N 9 13 5 7 - - 0.0
22/07:00am 14.9 11.9 7.5 61 3.7 N 13 13 7 7 - - 0.0
22/06:30am 12.2 9.5 7.5 73 2.3 N 11 13 6 7 - - 0.0
22/06:00am 12.0 9.8 7.9 76 2.0 NNE 9 11 5 6 - - 0.0
22/05:30am 12.0 9.8 7.9 76 2.0 NE 9 9 5 5 - - 0.0
22/05:00am 11.5 8.8 7.4 76 2.0 NE 11 13 6 7 - - 0.0
22/04:30am 11.3 8.6 7.4 77 1.9 NE 11 11 6 6 - - 0.0
22/04:00am 12.4 10.8 7.9 74 2.2 NE 6 7 3 4 - - 0.0
22/03:30am 12.9 11.8 8.4 74 2.3 SE 4 6 2 3 - - 0.0
22/03:00am 12.7 10.5 8.0 73 2.3 SSW 9 9 5 5 - - 0.0
22/02:30am 12.3 9.5 7.0 70 2.6 SSW 11 13 6 7 - - 0.0
22/02:00am 13.0 9.9 7.2 68 2.8 S 13 13 7 7 - - 0.0
22/01:30am 12.9 10.0 6.5 65 3.1 SSW 11 13 6 7 - - 0.0
22/01:00am 12.8 9.4 5.7 62 3.4 S 13 15 7 8 - - 0.0
22/12:30am 13.4 10.0 5.8 60 3.6 S 13 15 7 8 - - 0.0
22/12:00am 13.3 9.4 5.5 59 3.7 SSW 15 17 8 9 - - 0.0
 
Date/Time
CST
Temp
°C
App
Temp
°C
Dew
Point
°C
Rel
Hum
%
Delta-T
°C
Wind Press
QNH
hPa
Press
MSL
hPa
Rain since
9am
mm
Dir  Spd
km/h
Gust
km/h
Spd
kts
Gust
kts
21/11:30pm 14.3 11.3 5.9 57 4.0 SSW 11 13 6 7 - - 0.0
21/11:00pm 14.9 11.6 6.2 56 4.2 S 13 15 7 8 - - 0.0
21/10:30pm 15.6 12.0 5.2 50 5.0 SSE 13 15 7 8 - - 0.0
21/10:00pm 18.4 14.8 0.5 30 7.9 NW 9 13 5 7 - - 0.0
21/09:30pm 19.9 16.3 0.9 28 8.6 N 9 11 5 6 - - 0.0
21/09:00pm 20.1 16.5 0.5 27 8.8 NNW 9 9 5 5 - - 0.0
21/08:30pm 19.5 15.9 0.5 28 8.5 N 9 11 5 6 - - 0.0
21/08:00pm 20.2 17.2 1.1 28 8.7 NNW 6 7 3 4 - - 0.0
21/07:30pm 21.0 18.1 1.3 27 9.1 WNW 6 11 3 6 - - 0.0
21/07:00pm 21.3 18.2 1.6 27 9.2 N 7 9 4 5 - - 0.0
21/06:30pm 21.9 18.8 1.6 26 9.5 NNW 7 9 4 5 - - 0.0
21/06:00pm 23.4 19.1 1.1 23 10.4 NNW 13 17 7 9 - - 0.0
21/05:30pm 23.7 20.3 2.0 24 10.3 NNW 9 13 5 7 - - 0.0
21/05:00pm 23.7 19.2 2.0 24 10.3 N 15 20 8 11 - - 0.0
21/04:30pm 24.7 19.6 2.8 24 10.7 NW 19 26 10 14 - - 0.0
21/04:00pm 24.5 20.1 2.6 24 10.6 N 15 24 8 13 - - 0.0
21/03:30pm 24.6 20.7 3.3 25 10.5 N 13 22 7 12 - - 0.0
21/03:00pm 24.3 20.3 3.0 25 10.4 NNW 13 20 7 11 - - 0.0
21/02:30pm 24.6 20.4 3.8 26 10.3 N 15 24 8 13 - - 0.0
21/02:00pm 23.5 21.0 4.5 29 9.5 NNW 7 15 4 8 - - 0.0
21/01:30pm 23.7 20.4 4.6 29 9.6 N 11 20 6 11 - - 0.0
21/01:00pm 23.5 19.8 4.5 29 9.5 WNW 13 28 7 15 - - 0.0
21/12:30pm 22.2 18.2 4.7 32 8.7 NNW 15 26 8 14 - - 0.0
21/12:00pm 22.7 19.9 5.2 32 8.8 NNW 9 17 5 9 - - 0.0
21/11:30am 21.2 17.2 5.1 35 8.0 NNE 15 24 8 13 - - 0.0
21/11:00am 21.1 18.5 5.9 37 7.7 NE 9 15 5 8 - - 0.0
21/10:30am 20.1 17.7 6.8 42 6.8 NNE 9 17 5 9 - - 0.0
21/10:00am 18.7 16.9 7.8 49 5.6 NNE 7 13 4 7 - - 0.0
21/09:30am 17.8 16.3 8.4 54 4.9 NE 6 11 3 6 - - 0.0
21/09:00am 16.1 14.6 9.1 63 3.6 ESE 7 13 4 7 - - 0.0
21/08:30am 14.7 13.4 9.3 70 2.8 SE 6 9 3 5 - - 0.0
21/08:00am 12.3 11.6 9.9 85 1.2 S 4 6 2 3 - - 0.0
21/07:30am 11.0 10.7 10.1 94 0.5 SSE 2 4 1 2 - - 0.0
21/07:00am 10.4 9.1 9.9 97 0.3 SE 7 9 4 5 - - 0.0
21/06:30am 9.5 6.8 9.0 97 0.2 SSE 13 15 7 8 - - 0.0
21/06:00am 9.0 5.8 8.4 96 0.3 SSE 15 17 8 9 - - 0.0
21/05:30am 8.4 4.6 7.6 95 0.4 SSE 17 17 9 9 - - 0.0
21/05:00am 8.3 4.8 7.2 93 0.5 S 15 17 8 9 - - 0.0
21/04:30am 7.8 4.1 6.3 90 0.7 S 15 17 8 9 - - 0.0
21/04:00am 7.6 3.8 5.7 88 0.9 S 15 15 8 8 - - 0.0
21/03:30am 7.8 4.4 5.8 87 0.9 S 13 13 7 7 - - 0.0
21/03:00am 8.3 4.9 5.9 85 1.1 S 13 15 7 8 - - 0.0
21/02:30am 8.7 5.4 6.2 84 1.2 SSW 13 13 7 7 - - 0.0
21/02:00am 8.9 6.0 6.3 84 1.2 S 11 13 6 7 - - 0.0
21/01:30am 9.3 6.4 6.7 84 1.2 S 11 11 6 6 - - 0.0
21/01:00am 9.7 7.3 6.8 82 1.4 S 9 9 5 5 - - 0.0
21/12:30am 10.1 7.3 7.0 81 1.5 S 11 13 6 7 - - 0.0
21/12:00am 10.5 8.5 7.2 80 1.6 S 7 7 4 4 - - 0.0
 
Date/Time
CST
Temp
°C
App
Temp
°C
Dew
Point
°C
Rel
Hum
%
Delta-T
°C
Wind Press
QNH
hPa
Press
MSL
hPa
Rain since
9am
mm
Dir  Spd
km/h
Gust
km/h
Spd
kts
Gust
kts
20/11:30pm 11.1 9.4 7.4 78 1.8 S 6 7 3 4 - - 0.0
20/11:00pm 11.7 9.8 7.4 75 2.1 SSE 7 7 4 4 - - 0.0
20/10:30pm 11.5 9.6 7.6 77 1.9 SSE 7 9 4 5 - - 0.0
20/10:00pm 11.9 9.3 7.6 75 2.1 SSE 11 13 6 7 - - 0.0
20/09:30pm 11.9 10.2 7.4 74 2.2 SSE 6 7 3 4 - - 0.0
20/09:00pm 12.5 9.7 6.8 68 2.8 SSE 11 15 6 8 - - 0.0
20/08:30pm 13.0 9.1 7.0 67 2.9 SSE 17 20 9 11 - - 0.0
20/08:00pm 13.1 9.1 6.5 64 3.2 SSE 17 20 9 11 - - 0.0
20/07:30pm 13.5 9.0 5.9 60 3.6 SSE 19 24 10 13 - - 0.0
20/07:00pm 14.0 8.9 6.1 59 3.8 SSE 22 28 12 15 - - 0.0
20/06:30pm 14.6 9.2 6.2 57 4.1 SE 24 30 13 16 - - 0.0
20/06:00pm 15.3 9.9 6.3 55 4.4 SE 24 30 13 16 - - 0.0
20/05:30pm 16.6 11.7 6.7 52 4.9 SE 22 28 12 15 - - 0.0
20/05:00pm 17.8 13.5 7.0 49 5.4 SE 19 24 10 13 - - 0.0

Other Formats:

Comma delimited format used in spreadsheet applications
http://www.bom.gov.au/fwo/IDS60801/IDS60801.95683.axf

JavaScript Object Notation format (JSON) in row-major order
http://www.bom.gov.au/fwo/IDS60801/IDS60801.95683.json